Terminal Aerodrome Forecast
Issued by NWS

Home | Current Version | Previous Version | Text Only | Print | Product List | Glossary On
Versions: 1 2 3 4 5 6 7 8 9 10 11 12 13 14
000
FTUS42 KTBW 301738
TAFLAL
TAF
KLAL 301738Z 3018/3118 26006KT P6SM VCTS SCT050CB BKN100
      TEMPO 3019/3023 3SM TSRA BKN025CB
     FM310100 VRB03KT P6SM FEW030 SCT250
     FM311500 26005KT P6SM FEW040 SCT250=

USA.gov is the U.S. government's official web portal to all federal, state and local government web resources and services.